Time;durP1;ratioP1;P1;durP2;ratioP2;P2;SDS_P1;SDS_P2;PMS_P1;PMS_P2;Temp;Humidity;BMP_temperature;BMP_pressure;BME280_temperature;BME280_humidity;BME280_pressure;Samples;Min_cycle;Max_cycle;Signal;HPM_P1;HPM_P2
2023/04/05 00:02:20;;;;;;;;;21.25;17.25;;;;;10.76;40.51;101871.78;5053440;28;44942;-64
2023/04/05 00:04:56;;;;;;;;;22.25;18.00;;;;;10.66;40.75;101864.22;5040558;28;45629;-64
2023/04/05 00:07:25;;;;;;;;;23.50;17.00;;;;;10.68;40.46;101875.88;5033612;28;44988;-65
2023/04/05 00:09:50;;;;;;;;;20.75;17.75;;;;;10.65;40.53;101875.72;5034066;28;45024;-65
2023/04/05 00:12:16;;;;;;;;;21.25;16.25;;;;;10.53;41.12;101848.50;5033451;28;45073;-66
2023/04/05 00:14:41;;;;;;;;;22.25;19.25;;;;;10.55;40.48;101855.72;5051865;28;47948;-67
2023/04/05 00:17:06;;;;;;;;;22.75;19.75;;;;;10.62;40.84;101878.28;5046376;28;45275;-65
2023/04/05 00:19:32;;;;;;;;;19.50;14.75;;;;;10.60;40.12;101874.63;5032546;28;45371;-65
2023/04/05 00:21:59;;;;;;;;;18.25;16.75;;;;;10.59;40.68;101875.47;5041734;28;45185;-67
2023/04/05 00:24:24;;;;;;;;;15.25;14.00;;;;;10.52;40.21;101863.59;5041472;28;46841;-67
2023/04/05 00:26:49;;;;;;;;;17.50;16.50;;;;;10.53;40.43;101869.88;5051438;28;45257;-68
2023/04/05 00:29:15;;;;;;;;;18.50;17.75;;;;;10.45;40.25;101858.81;5052360;28;45081;-68
2023/04/05 00:31:40;;;;;;;;;18.00;16.75;;;;;10.51;40.00;101869.78;5051583;28;45168;-65
2023/04/05 00:34:07;;;;;;;;;20.50;16.50;;;;;10.56;40.13;101875.31;5048056;28;45757;-66
2023/04/05 00:36:33;;;;;;;;;14.50;14.50;;;;;10.47;40.36;101860.69;5038171;28;44906;-65
2023/04/05 00:38:59;;;;;;;;;20.25;18.50;;;;;10.48;39.97;101859.88;5033101;28;44928;-66
2023/04/05 00:41:24;;;;;;;;;19.75;17.75;;;;;10.46;40.15;101853.56;5033399;28;45040;-67
2023/04/05 00:43:49;;;;;;;;;20.75;16.50;;;;;10.11;40.45;101793.16;5032976;28;45186;-66
2023/04/05 00:46:15;;;;;;;;;18.75;16.75;;;;;10.50;39.70;101859.94;5032727;28;44954;-64
2023/04/05 00:48:41;;;;;;;;;23.50;17.75;;;;;10.52;39.71;101863.59;5032688;28;45175;-66
2023/04/05 00:51:10;;;;;;;;;16.25;15.75;;;;;10.42;39.74;101843.56;5033264;28;44981;-66
2023/04/05 00:53:36;;;;;;;;;21.00;16.00;;;;;10.50;39.79;101855.50;5052771;28;45676;-66
2023/04/05 00:56:05;;;;;;;;;15.75;13.75;;;;;10.48;39.87;101854.53;5052509;28;45107;-64
2023/04/05 00:58:32;;;;;;;;;21.25;15.50;;;;;10.46;40.09;101856.22;5052977;28;44902;-67
2023/04/05 01:01:19;;;;;;;;;20.50;16.75;;;;;10.30;40.12;101833.22;5052083;28;45317;-67
2023/04/05 01:03:52;;;;;;;;;21.50;17.25;;;;;10.41;40.08;101843.47;5052522;28;45094;-68
2023/04/05 01:06:24;;;;;;;;;23.50;16.25;;;;;10.47;39.93;101855.34;5050717;28;45154;-66
2023/04/05 01:09:24;;;;;;;;;18.25;15.00;;;;;10.43;39.58;101845.41;5049735;28;45362;-67
2023/04/05 01:11:54;;;;;;;;;17.25;15.25;;;;;10.42;39.75;101840.88;5051808;28;45072;-67
2023/04/05 01:14:20;;;;;;;;;16.00;15.00;;;;;10.32;39.83;101827.97;5051822;28;45149;-66
2023/04/05 01:16:48;;;;;;;;;17.75;13.50;;;;;10.46;39.51;101839.25;5051241;28;44864;-66
2023/04/05 01:19:14;;;;;;;;;19.50;18.25;;;;;10.45;39.96;101833.00;5035897;28;45052;-65
2023/04/05 01:21:57;;;;;;;;;16.50;13.25;;;;;10.45;39.33;101835.69;5041244;28;44885;-66
2023/04/05 01:25:01;;;;;;;;;15.50;15.00;;;;;10.46;39.31;101833.91;5034145;28;45773;-66
2023/04/05 01:28:05;;;;;;;;;21.00;16.25;;;;;10.44;39.33;101822.25;5051725;28;45221;-66
2023/04/05 01:30:41;;;;;;;;;18.25;15.00;;;;;10.41;39.61;101822.09;5052385;28;45179;-65
2023/04/05 01:33:18;;;;;;;;;16.50;14.25;;;;;10.43;39.18;101824.03;5050892;28;45356;-70
2023/04/05 01:36:00;;;;;;;;;15.00;14.75;;;;;10.38;39.50;101814.91;5051502;28;45859;-67
2023/04/05 01:38:27;;;;;;;;;17.50;14.00;;;;;10.37;39.54;101812.16;5063912;28;45179;-66
2023/04/05 01:40:53;;;;;;;;;15.75;13.00;;;;;10.37;39.37;101818.41;5041162;28;45209;-69
2023/04/05 01:43:18;;;;;;;;;13.50;9.25;;;;;10.37;39.69;101825.50;5050514;28;45142;-67
2023/04/05 01:45:45;;;;;;;;;17.50;13.75;;;;;10.34;39.58;101823.59;5051489;28;45601;-67
2023/04/05 01:48:11;;;;;;;;;11.25;11.25;;;;;10.31;39.25;101812.75;5043799;28;44998;-68
2023/04/05 01:50:37;;;;;;;;;18.00;16.75;;;;;10.29;39.24;101804.66;5041143;28;45146;-70
2023/04/05 01:53:03;;;;;;;;;23.75;20.25;;;;;10.35;39.75;101811.19;5051737;28;44851;-66
2023/04/05 01:55:28;;;;;;;;;22.25;18.50;;;;;10.27;39.38;101801.00;5045889;28;45889;-68
2023/04/05 01:57:55;;;;;;;;;21.25;17.00;;;;;10.33;39.97;101817.34;5051557;28;52814;-68
2023/04/05 02:00:21;;;;;;;;;16.25;13.50;;;;;10.36;39.48;101816.59;5032438;28;45617;-69
2023/04/05 02:02:46;;;;;;;;;19.00;14.75;;;;;10.35;39.45;101816.53;5050705;28;44984;-67
2023/04/05 02:05:11;;;;;;;;;21.25;16.00;;;;;10.31;39.85;101803.00;5049993;28;51408;-65
2023/04/05 02:07:37;;;;;;;;;19.00;16.75;;;;;10.28;39.67;101805.53;5050001;28;44973;-66
2023/04/05 02:10:03;;;;;;;;;23.50;18.25;;;;;10.21;40.11;101794.47;5049318;28;45081;-66
2023/04/05 02:12:28;;;;;;;;;21.75;15.50;;;;;10.28;40.31;101793.94;5034215;28;45139;-67
2023/04/05 02:14:53;;;;;;;;;24.25;18.00;;;;;10.25;40.01;101785.78;5046206;28;45656;-69
2023/04/05 02:17:20;;;;;;;;;22.00;17.75;;;;;10.06;40.17;101771.59;5034766;28;45044;-67
2023/04/05 02:19:46;;;;;;;;;19.50;16.50;;;;;10.07;39.98;101775.19;5031525;28;45094;-66
2023/04/05 02:22:12;;;;;;;;;23.75;17.75;;;;;10.01;40.46;101769.56;5048402;28;44945;-71
2023/04/05 02:24:38;;;;;;;;;15.00;12.25;;;;;10.07;40.18;101770.75;5052060;28;46037;-68
2023/04/05 02:27:03;;;;;;;;;18.50;15.50;;;;;10.12;41.02;101784.31;5042177;28;45226;-64
2023/04/05 02:29:30;;;;;;;;;17.00;15.50;;;;;10.04;40.29;101767.94;5031654;28;45289;-66
2023/04/05 02:31:56;;;;;;;;;19.00;17.50;;;;;10.05;39.91;101775.13;5050873;28;45291;-67
2023/04/05 02:34:21;;;;;;;;;19.50;17.00;;;;;10.00;40.72;101765.06;5035698;28;45366;-65
2023/04/05 02:36:49;;;;;;;;;21.50;15.00;;;;;10.07;40.50;101781.44;5039519;28;44959;-67
2023/04/05 02:39:15;;;;;;;;;24.25;15.50;;;;;10.04;39.97;101785.72;5055384;28;45187;-67
2023/04/05 02:41:40;;;;;;;;;21.50;16.50;;;;;10.00;40.18;101789.09;5052854;28;45209;-66
2023/04/05 02:44:05;;;;;;;;;15.75;14.00;;;;;9.98;40.34;101781.00;5052661;28;47260;-65
2023/04/05 02:46:31;;;;;;;;;25.00;14.00;;;;;9.96;40.82;101778.28;5056317;28;62690;-66
2023/04/05 02:48:56;;;;;;;;;19.25;15.75;;;;;9.95;40.37;101776.47;5054622;28;45166;-65
2023/04/05 02:51:21;;;;;;;;;20.00;17.75;;;;;9.98;40.41;101781.00;5055676;28;45306;-69
2023/04/05 02:53:47;;;;;;;;;19.50;15.50;;;;;9.98;41.27;101780.09;5055507;28;45337;-66
2023/04/05 02:56:13;;;;;;;;;23.50;18.75;;;;;9.93;41.35;101779.88;5054712;28;44946;-69
2023/04/05 02:58:39;;;;;;;;;18.00;17.50;;;;;9.80;41.74;101758.81;5053308;28;45040;-66
2023/04/05 03:01:05;;;;;;;;;23.50;20.25;;;;;9.74;41.65;101763.03;5049212;28;45196;-68
2023/04/05 03:03:33;;;;;;;;;26.00;24.50;;;;;9.80;42.62;101780.16;5034374;28;45445;-69
2023/04/05 03:06:08;;;;;;;;;16.00;12.50;;;;;9.44;42.45;101721.59;5033267;28;45103;-67
2023/04/05 03:08:37;;;;;;;;;26.00;22.75;;;;;9.73;42.96;101768.31;5034531;28;45069;-66
2023/04/05 03:11:06;;;;;;;;;24.25;24.25;;;;;9.75;42.38;101764.88;5034562;28;45013;-64
2023/04/05 03:13:31;;;;;;;;;31.25;26.00;;;;;9.75;43.15;101769.28;5034368;28;46050;-66
2023/04/05 03:15:56;;;;;;;;;30.00;22.00;;;;;9.69;42.51;101761.91;5032725;28;45331;-66
2023/04/05 03:18:24;;;;;;;;;24.00;18.25;;;;;9.70;42.21;101766.41;5047368;28;48393;-65
2023/04/05 03:20:57;;;;;;;;;23.00;18.00;;;;;9.72;42.72;101775.41;5052919;28;45228;-66
2023/04/05 03:23:27;;;;;;;;;15.75;12.75;;;;;9.74;42.25;101775.47;5050820;28;45741;-64
2023/04/05 03:26:02;;;;;;;;;27.00;21.75;;;;;9.76;42.24;101773.78;5051109;28;45196;-64
2023/04/05 03:28:33;;;;;;;;;27.75;20.75;;;;;9.77;42.11;101779.19;5053063;28;45007;-67
2023/04/05 03:30:59;;;;;;;;;22.25;15.75;;;;;9.42;42.27;101713.53;5053093;28;44930;-64
2023/04/05 03:33:24;;;;;;;;;22.75;15.25;;;;;9.80;41.37;101781.09;5041022;28;47528;-64
2023/04/05 03:35:49;;;;;;;;;22.25;19.00;;;;;9.73;41.22;101778.97;5047419;28;45080;-66
2023/04/05 03:38:15;;;;;;;;;19.25;16.25;;;;;9.73;41.69;101774.56;5042365;28;45088;-65
2023/04/05 03:40:41;;;;;;;;;25.75;23.00;;;;;9.70;41.95;101773.50;5050307;28;45047;-66
2023/04/05 03:43:06;;;;;;;;;15.25;14.00;;;;;9.65;41.76;101781.31;5047827;28;45474;-64
2023/04/05 03:45:32;;;;;;;;;36.00;32.50;;;;;9.63;42.51;101776.72;5042129;28;45009;-66
2023/04/05 03:47:58;;;;;;;;;38.25;27.25;;;;;9.58;41.75;101773.84;5033676;28;45119;-66
2023/04/05 03:50:25;;;;;;;;;26.75;21.75;;;;;9.65;42.45;101778.63;5036055;28;45267;-63
2023/04/05 03:52:51;;;;;;;;;24.25;20.25;;;;;9.62;42.13;101772.22;5033974;28;45259;-69
2023/04/05 03:55:16;;;;;;;;;24.50;22.25;;;;;9.55;41.71;101765.69;5042764;28;45024;-66
2023/04/05 03:57:42;;;;;;;;;23.00;20.50;;;;;9.58;41.99;101782.75;5036523;28;45021;-65
2023/04/05 04:00:13;;;;;;;;;26.50;21.25;;;;;9.57;42.34;101774.69;5047964;28;45103;-64
2023/04/05 04:02:47;;;;;;;;;22.75;19.50;;;;;9.55;42.17;101779.97;5050212;28;47354;-65
2023/04/05 04:05:14;;;;;;;;;25.00;15.50;;;;;9.39;41.79;101754.31;5048691;28;44933;-66
2023/04/05 04:07:40;;;;;;;;;27.25;22.00;;;;;9.47;42.28;101759.06;5046504;28;44917;-66
2023/04/05 04:10:07;;;;;;;;;22.00;17.50;;;;;9.55;42.23;101768.34;5047104;28;45239;-66
2023/04/05 04:12:32;;;;;;;;;24.50;21.00;;;;;9.58;41.98;101769.41;5038829;28;46164;-64
2023/04/05 04:14:58;;;;;;;;;23.25;18.25;;;;;9.55;41.90;101771.97;5033255;28;45632;-66
2023/04/05 04:17:31;;;;;;;;;23.75;23.25;;;;;9.46;42.36;101767.94;5049569;28;45131;-65
2023/04/05 04:19:57;;;;;;;;;22.75;21.00;;;;;9.46;42.27;101770.59;5053663;28;45063;-64
2023/04/05 04:22:31;;;;;;;;;40.50;28.25;;;;;9.35;43.09;101748.75;5054101;28;45477;-67
2023/04/05 04:25:03;;;;;;;;;31.00;25.00;;;;;9.50;43.21;101759.22;5041645;28;45257;-66
2023/04/05 04:27:29;;;;;;;;;34.25;25.75;;;;;9.35;43.69;101756.75;5054074;28;45457;-67
2023/04/05 04:30:00;;;;;;;;;26.00;22.50;;;;;9.37;43.37;101764.00;5074222;28;44912;-67
2023/04/05 04:32:46;;;;;;;;;26.25;24.25;;;;;9.32;43.53;101765.53;5073730;28;45847;-68
2023/04/05 04:35:17;;;;;;;;;29.50;21.50;;;;;9.32;43.88;101765.53;5072951;28;45085;-67
2023/04/05 04:37:47;;;;;;;;;25.50;22.00;;;;;9.31;43.65;101778.78;5072999;28;45174;-66
2023/04/05 04:40:20;;;;;;;;;25.50;21.25;;;;;9.29;43.29;101776.06;5066892;28;44938;-66
2023/04/05 04:42:45;;;;;;;;;25.75;22.50;;;;;9.26;43.87;101762.56;5043745;28;45756;-64
2023/04/05 04:45:17;;;;;;;;;26.00;22.25;;;;;9.30;43.66;101767.19;5053123;28;45097;-67
2023/04/05 04:47:48;;;;;;;;;27.50;24.00;;;;;9.31;43.88;101765.47;5051723;28;45217;-68
2023/04/05 04:50:14;;;;;;;;;30.00;23.25;;;;;9.28;44.56;101768.88;5053161;28;45316;-66
2023/04/05 04:52:41;;;;;;;;;41.75;26.00;;;;;9.23;44.08;101760.66;5052407;28;46253;-66
2023/04/05 04:55:13;;;;;;;;;27.25;25.75;;;;;9.11;44.30;101760.06;5051315;28;45402;-64
2023/04/05 04:57:42;;;;;;;;;30.75;27.50;;;;;9.00;44.80;101759.53;5052976;28;45185;-65
2023/04/05 05:00:13;;;;;;;;;28.00;22.00;;;;;8.94;45.72;101766.31;5051032;28;45034;-68
2023/04/05 05:02:39;;;;;;;;;24.75;21.00;;;;;8.88;45.12;101760.72;5052489;28;46490;-67
2023/04/05 05:05:06;;;;;;;;;26.25;21.25;;;;;8.82;45.89;101767.53;5041960;28;44981;-66
2023/04/05 05:07:32;;;;;;;;;32.50;25.00;;;;;8.77;47.19;101760.16;5032462;28;45133;-65
2023/04/05 05:09:57;;;;;;;;;27.25;22.75;;;;;8.71;46.79;101744.81;5032831;28;45099;-65
2023/04/05 05:12:23;;;;;;;;;26.25;22.00;;;;;8.75;46.49;101764.50;5031476;28;54528;-65
2023/04/05 05:14:48;;;;;;;;;24.75;20.25;;;;;8.65;45.96;101734.72;5031770;28;45029;-66
2023/04/05 05:17:13;;;;;;;;;25.00;22.25;;;;;8.77;45.70;101747.75;5032975;28;45013;-64
2023/04/05 05:19:40;;;;;;;;;23.75;22.75;;;;;8.82;44.94;101758.63;5031782;28;45150;-66
2023/04/05 05:22:05;;;;;;;;;25.25;21.75;;;;;8.82;44.86;101755.97;5031343;28;45145;-67
2023/04/05 05:24:30;;;;;;;;;27.75;22.75;;;;;8.92;46.54;101760.00;5033451;28;45396;-65
2023/04/05 05:26:56;;;;;;;;;32.50;27.50;;;;;8.95;45.24;101757.50;5034982;28;45440;-67
2023/04/05 05:29:21;;;;;;;;;22.00;22.00;;;;;8.90;46.08;101759.03;5042833;28;44963;-66
2023/04/05 05:31:46;;;;;;;;;31.50;26.00;;;;;8.77;46.71;101746.84;5035701;28;55167;-66
2023/04/05 05:34:11;;;;;;;;;28.75;22.25;;;;;8.79;46.10;101758.47;5040568;28;54093;-64
2023/04/05 05:36:37;;;;;;;;;22.75;20.25;;;;;8.77;46.24;101758.41;5049917;28;45201;-70
2023/04/05 05:39:04;;;;;;;;;32.25;27.00;;;;;8.81;45.57;101751.47;5067217;28;45205;-65
2023/04/05 05:41:30;;;;;;;;;33.50;19.00;;;;;8.81;44.76;101755.06;5033316;28;46837;-64
2023/04/05 05:43:55;;;;;;;;;23.00;20.50;;;;;8.80;45.50;101758.56;5031324;28;44828;-64
2023/04/05 05:46:20;;;;;;;;;29.50;20.25;;;;;8.77;45.21;101758.41;5031994;28;44859;-65
2023/04/05 05:48:46;;;;;;;;;36.00;25.75;;;;;8.51;45.61;101711.81;5031413;28;44963;-67
2023/04/05 05:51:11;;;;;;;;;25.50;18.25;;;;;8.79;45.31;101758.47;5046044;28;45768;-65
2023/04/05 05:53:38;;;;;;;;;32.00;21.75;;;;;8.77;44.91;101747.75;5041205;28;44959;-64
2023/04/05 05:56:04;;;;;;;;;26.50;22.25;;;;;8.76;44.64;101743.28;5032801;28;45249;-65
2023/04/05 05:58:30;;;;;;;;;33.25;26.50;;;;;8.86;44.62;101757.97;5048770;28;45129;-64
2023/04/05 06:00:56;;;;;;;;;36.00;28.00;;;;;8.89;45.54;101763.41;5035213;28;45386;-64
2023/04/05 06:03:24;;;;;;;;;25.75;25.75;;;;;8.95;45.70;101763.72;5033598;28;45421;-65
2023/04/05 06:05:58;;;;;;;;;24.75;23.50;;;;;8.87;45.60;101742.88;5043200;28;44978;-66
2023/04/05 06:08:28;;;;;;;;;28.00;24.50;;;;;8.97;46.27;101766.47;5030106;28;45322;-64
2023/04/05 06:10:54;;;;;;;;;28.75;25.00;;;;;8.92;46.30;101760.91;5030892;28;45250;-65
2023/04/05 06:13:19;;;;;;;;;30.00;24.25;;;;;8.92;46.77;101763.56;5044613;28;45167;-65
2023/04/05 06:15:49;;;;;;;;;37.25;32.00;;;;;8.90;47.20;101772.34;5031311;28;45041;-63
2023/04/05 06:18:15;;;;;;;;;32.25;29.25;;;;;8.83;46.79;101769.38;5031684;28;45246;-66
2023/04/05 06:20:44;;;;;;;;;31.25;26.75;;;;;8.87;46.17;101765.09;5032201;28;45800;-65
2023/04/05 06:23:12;;;;;;;;;45.25;33.75;;;;;8.94;46.82;101771.66;5030886;28;45196;-65
2023/04/05 06:25:38;;;;;;;;;47.50;36.75;;;;;8.94;46.57;101771.66;5034218;28;45186;-66
2023/04/05 06:28:06;;;;;;;;;32.50;27.00;;;;;8.99;45.41;101776.38;5031329;28;45139;-65
2023/04/05 06:30:32;;;;;;;;;32.25;27.25;;;;;8.97;44.98;101777.13;5032037;28;45739;-66
2023/04/05 06:32:58;;;;;;;;;21.25;17.75;;;;;8.97;45.21;101772.72;5030462;28;45031;-67
2023/04/05 06:35:24;;;;;;;;;37.50;30.25;;;;;9.00;44.37;101782.63;5043585;28;45373;-66
2023/04/05 06:37:50;;;;;;;;;30.00;23.00;;;;;8.96;45.15;101770.91;5051735;28;45076;-65
2023/04/05 06:40:16;;;;;;;;;29.75;28.75;;;;;9.00;44.43;101774.63;5046982;28;45511;-66
2023/04/05 06:42:42;;;;;;;;;31.25;27.50;;;;;9.07;44.39;101771.41;5050062;28;44898;-67
2023/04/05 06:45:09;;;;;;;;;36.75;26.75;;;;;9.10;43.27;101770.66;5048759;28;45064;-66
2023/04/05 06:47:38;;;;;;;;;28.25;26.75;;;;;9.18;44.01;101774.63;5051311;28;44986;-64
2023/04/05 06:50:06;;;;;;;;;35.50;25.75;;;;;9.21;44.17;101767.66;5045872;28;45420;-67
2023/04/05 06:52:32;;;;;;;;;25.25;22.50;;;;;9.19;42.75;101773.78;5039822;28;45102;-64
2023/04/05 06:54:58;;;;;;;;;25.00;19.50;;;;;9.25;42.55;101774.06;5030938;28;45215;-66
2023/04/05 06:57:23;;;;;;;;;24.00;17.50;;;;;9.34;42.03;101779.84;5046344;28;46329;-65
2023/04/05 06:59:50;;;;;;;;;21.75;19.50;;;;;9.40;42.91;101784.53;5043769;28;45468;-67
2023/04/05 07:02:15;;;;;;;;;33.00;28.50;;;;;9.46;42.32;101787.50;5056535;28;45209;-64
2023/04/05 07:04:40;;;;;;;;;35.25;31.75;;;;;9.52;42.98;101778.88;5048157;28;45051;-67
2023/04/05 07:07:05;;;;;;;;;28.25;24.25;;;;;9.61;42.42;101778.41;5048856;28;46592;-67
2023/04/05 07:09:32;;;;;;;;;30.25;23.00;;;;;9.66;42.49;101791.13;5037818;28;45300;-67
2023/04/05 07:11:58;;;;;;;;;29.75;22.75;;;;;9.65;42.67;101783.97;5034132;28;46547;-66
2023/04/05 07:14:23;;;;;;;;;29.50;24.00;;;;;9.74;42.66;101795.06;5033091;28;45234;-65
2023/04/05 07:16:51;;;;;;;;;35.50;27.50;;;;;9.78;41.97;101791.72;5043115;28;45354;-67
2023/04/05 07:19:16;;;;;;;;;32.50;26.75;;;;;9.85;41.24;101802.66;5053193;28;45650;-66
2023/04/05 07:21:43;;;;;;;;;30.00;24.00;;;;;9.88;40.89;101795.72;5052645;28;45062;-66
2023/04/05 07:24:08;;;;;;;;;30.25;23.50;;;;;9.92;41.10;101797.66;5053559;28;44981;-69
2023/04/05 07:26:34;;;;;;;;;32.25;28.00;;;;;9.89;41.00;101793.94;5050177;28;44937;-67
2023/04/05 07:29:01;;;;;;;;;34.75;29.25;;;;;9.96;40.91;101799.66;5044396;28;46915;-68
2023/04/05 07:31:26;;;;;;;;;31.25;28.75;;;;;10.04;40.94;101804.41;5036973;28;45332;-67
2023/04/05 07:33:51;;;;;;;;;33.00;26.50;;;;;10.06;40.40;101790.28;5039428;28;45391;-67
2023/04/05 07:36:16;;;;;;;;;32.75;28.00;;;;;10.06;40.25;101779.59;5064565;28;45484;-70
2023/04/05 07:38:43;;;;;;;;;30.00;24.75;;;;;10.13;39.98;101786.16;5047228;28;61615;-68
2023/04/05 07:41:09;;;;;;;;;25.00;21.00;;;;;10.18;39.67;101789.00;5049430;28;45061;-65
2023/04/05 07:43:34;;;;;;;;;35.75;30.00;;;;;10.21;39.95;101787.38;5049684;28;45141;-68
2023/04/05 07:46:01;;;;;;;;;34.25;28.25;;;;;10.28;39.85;101789.50;5049657;28;45446;-68
2023/04/05 07:48:27;;;;;;;;;33.25;29.00;;;;;10.31;40.07;101786.03;5054249;28;45969;-66
2023/04/05 07:50:52;;;;;;;;;35.75;29.25;;;;;10.28;40.73;101776.13;5040471;28;44957;-68
2023/04/05 07:53:18;;;;;;;;;31.75;25.50;;;;;10.41;40.69;101788.31;5052903;28;45405;-69
2023/04/05 07:55:43;;;;;;;;;30.00;20.50;;;;;10.49;40.00;101775.28;5048589;28;45048;-66
2023/04/05 07:58:09;;;;;;;;;26.25;25.75;;;;;10.47;39.96;101756.50;5040909;28;46132;-66
2023/04/05 08:00:35;;;;;;;;;31.00;27.00;;;;;10.64;39.34;101775.00;5040331;28;44914;-70
2023/04/05 08:03:01;;;;;;;;;40.25;34.75;;;;;10.74;39.86;101776.31;5046329;28;45332;-69
2023/04/05 08:05:27;;;;;;;;;33.00;27.50;;;;;10.78;39.73;101762.25;5047984;28;51210;-70
2023/04/05 08:07:53;;;;;;;;;29.75;26.25;;;;;10.87;39.48;101778.66;5033227;28;45021;-67
2023/04/05 08:10:19;;;;;;;;;48.75;37.75;;;;;10.83;39.37;101761.56;5054867;28;45250;-71
2023/04/05 08:12:44;;;;;;;;;33.50;23.50;;;;;10.91;39.49;101775.28;5030100;28;45342;-68
2023/04/05 08:15:10;;;;;;;;;37.25;26.75;;;;;10.90;38.55;101759.16;5032014;28;45476;-69
2023/04/05 08:17:35;;;;;;;;;29.00;27.50;;;;;10.97;39.00;101771.94;5039851;28;45833;-69
2023/04/05 08:20:00;;;;;;;;;32.00;29.75;;;;;10.98;38.49;101776.44;5046589;28;59024;-71
2023/04/05 08:22:29;;;;;;;;;29.75;28.75;;;;;10.99;38.47;101776.50;5041827;28;48422;-72
2023/04/05 08:24:54;;;;;;;;;34.25;28.50;;;;;11.06;38.40;101775.91;5040226;28;45080;-67
2023/04/05 08:27:19;;;;;;;;;30.50;23.50;;;;;11.13;37.52;101782.41;5031904;28;45218;-70
2023/04/05 08:29:45;;;;;;;;;32.50;26.50;;;;;11.14;37.58;101767.28;5036795;28;45400;-70
2023/04/05 08:32:10;;;;;;;;;37.00;28.50;;;;;11.32;37.69;101783.13;5027732;28;45627;-67
2023/04/05 08:34:36;;;;;;;;;40.75;28.50;;;;;11.33;37.66;101767.16;5026639;28;45497;-70
2023/04/05 08:37:01;;;;;;;;;34.25;27.00;;;;;11.51;37.28;101780.34;5035388;28;45642;-67
2023/04/05 08:39:26;;;;;;;;;30.75;28.00;;;;;11.63;36.86;101777.22;5036602;28;45096;-65
2023/04/05 08:42:14;;;;;;;;;32.50;26.25;;;;;11.73;36.37;101779.44;5043554;28;45167;-68
2023/04/05 08:44:40;;;;;;;;;30.00;23.00;;;;;11.80;35.64;101777.91;5058766;28;45121;-69
2023/04/05 08:47:14;;;;;;;;;30.75;29.75;;;;;11.76;35.88;101770.59;5038240;28;45463;-69
2023/04/05 08:49:46;;;;;;;;;36.25;28.50;;;;;11.76;35.40;101760.81;5046657;28;45226;-65
2023/04/05 08:52:11;;;;;;;;;26.50;24.75;;;;;11.80;35.54;101769.88;5047190;28;45067;-66
2023/04/05 08:54:36;;;;;;;;;30.50;24.75;;;;;11.84;35.61;101777.13;5052264;28;45053;-65
2023/04/05 08:57:06;;;;;;;;;31.50;28.25;;;;;11.94;34.98;101784.69;5052321;28;45150;-66
2023/04/05 08:59:35;;;;;;;;;48.00;38.00;;;;;11.96;34.71;101774.97;5050895;28;45177;-64
2023/04/05 09:02:05;;;;;;;;;34.75;31.50;;;;;12.09;35.57;101784.38;5051171;28;45139;-67
2023/04/05 09:04:38;;;;;;;;;37.50;25.25;;;;;12.05;34.77;101752.06;5046260;28;45291;-66
2023/04/05 09:07:05;;;;;;;;;42.50;34.00;;;;;12.33;34.70;101778.06;5032340;28;45162;-66
2023/04/05 09:09:35;;;;;;;;;31.50;27.75;;;;;12.40;33.78;101774.75;5031128;28;45040;-67
2023/04/05 09:12:02;;;;;;;;;33.00;24.75;;;;;12.43;34.28;101768.59;5030725;28;46185;-64
2023/04/05 09:14:29;;;;;;;;;30.00;25.50;;;;;12.46;34.26;101772.28;5032291;28;45096;-67
2023/04/05 09:16:57;;;;;;;;;34.50;30.00;;;;;12.54;34.02;101770.78;5039304;28;45228;-66
2023/04/05 09:19:22;;;;;;;;;30.00;25.00;;;;;12.59;33.93;101776.31;5048215;28;45008;-64
2023/04/05 09:21:58;;;;;;;;;33.75;31.00;;;;;12.71;34.60;101773.13;5035237;28;45207;-66
2023/04/05 09:24:40;;;;;;;;;33.25;27.00;;;;;12.75;33.24;101764.31;5048994;28;46102;-67
2023/04/05 09:27:17;;;;;;;;;40.00;30.25;;;;;12.87;33.53;101763.84;5043581;28;45401;-65
2023/04/05 09:29:45;;;;;;;;;27.50;24.50;;;;;12.97;33.28;101765.97;5039703;28;45133;-66
2023/04/05 09:32:12;;;;;;;;;31.25;28.50;;;;;13.07;33.06;101773.44;5046851;28;45019;-67
2023/04/05 09:34:38;;;;;;;;;32.50;25.50;;;;;13.15;33.70;101770.09;5046180;28;45199;-64
2023/04/05 09:37:15;;;;;;;;;35.25;30.00;;;;;13.08;33.13;101767.25;5048261;28;47671;-67
2023/04/05 09:39:41;;;;;;;;;40.75;29.00;;;;;13.08;33.28;101767.25;5030709;28;45258;-67
2023/04/05 09:42:11;;;;;;;;;35.50;31.00;;;;;13.14;33.32;101773.66;5057798;28;45082;-68
2023/04/05 09:45:01;;;;;;;;;43.25;25.50;;;;;13.25;32.79;101764.19;5053088;28;45103;-67
2023/04/05 09:47:31;;;;;;;;;18.75;18.50;;;;;13.08;31.22;101712.66;5051772;28;45249;-68
2023/04/05 09:49:58;;;;;;;;;34.25;31.25;;;;;13.43;30.99;101762.09;5051814;28;44910;-64
2023/04/05 09:52:28;;;;;;;;;39.25;34.00;;;;;13.41;31.12;101746.81;5051395;28;45165;-67
2023/04/05 09:54:59;;;;;;;;;36.75;33.50;;;;;13.25;30.95;101699.78;5049563;28;45691;-65
2023/04/05 09:57:26;;;;;;;;;24.50;21.00;;;;;13.63;30.09;101741.22;5045754;28;45217;-68
2023/04/05 09:59:52;;;;;;;;;30.75;24.50;;;;;13.73;30.55;101745.09;5056157;28;45176;-66
2023/04/05 10:02:18;;;;;;;;;28.50;26.00;;;;;13.76;30.72;101739.81;5049340;28;45794;-69
2023/04/05 10:04:45;;;;;;;;;31.25;30.00;;;;;13.85;30.66;101743.63;5044738;28;45453;-68
2023/04/05 10:07:15;;;;;;;;;31.75;27.50;;;;;13.83;31.79;101728.38;5048943;28;46025;-68
2023/04/05 10:09:46;;;;;;;;;29.75;27.50;;;;;14.02;30.80;101739.63;5049587;28;45508;-65
2023/04/05 10:12:20;;;;;;;;;32.00;24.50;;;;;14.12;30.63;101743.50;5045884;28;45024;-67
2023/04/05 10:14:45;;;;;;;;;27.50;22.25;;;;;14.18;29.90;101739.19;5038317;28;44866;-66
2023/04/05 10:17:30;;;;;;;;;27.50;25.50;;;;;14.21;29.95;101732.09;5041258;28;45996;-66
2023/04/05 10:19:59;;;;;;;;;28.75;25.25;;;;;14.27;29.45;101734.94;5050257;28;45186;-68
2023/04/05 10:22:32;;;;;;;;;29.50;25.50;;;;;14.27;28.98;101729.56;5044609;28;45297;-67
2023/04/05 10:25:07;;;;;;;;;31.75;25.00;;;;;14.31;29.13;101729.69;5046960;28;45117;-66
2023/04/05 10:27:45;;;;;;;;;23.75;23.50;;;;;14.23;28.36;101715.13;5054887;28;45390;-66
2023/04/05 10:30:11;;;;;;;;;30.00;26.75;;;;;14.28;28.11;101720.63;5051672;28;45348;-70
2023/04/05 10:33:06;;;;;;;;;28.75;26.75;;;;;14.36;27.63;101721.75;5049293;28;45297;-67
2023/04/05 10:35:48;;;;;;;;;22.75;22.00;;;;;14.40;27.72;101722.75;5062027;28;45073;-66
2023/04/05 10:38:28;;;;;;;;;26.75;26.50;;;;;14.36;27.67;101722.66;5056946;28;46721;-68
2023/04/05 10:41:11;;;;;;;;;21.00;20.00;;;;;14.36;27.94;101711.00;5062039;28;45417;-68
2023/04/05 10:43:40;;;;;;;;;23.50;23.00;;;;;14.38;27.77;101701.19;5049878;28;45272;-65
2023/04/05 10:46:06;;;;;;;;;33.75;30.00;;;;;14.49;27.75;101707.75;5044119;28;45049;-66
2023/04/05 10:48:54;;;;;;;;;30.50;26.00;;;;;14.53;27.66;101701.56;5052095;28;46150;-65
2023/04/05 10:51:22;;;;;;;;;26.75;22.50;;;;;14.47;27.66;101703.19;5058199;28;45090;-66
2023/04/05 10:53:49;;;;;;;;;43.50;30.25;;;;;14.49;28.25;101686.25;5043903;28;45419;-67
2023/04/05 10:56:15;;;;;;;;;40.00;31.75;;;;;14.57;28.00;101687.34;5051196;28;45266;-67
2023/04/05 10:58:42;;;;;;;;;32.75;28.50;;;;;14.69;28.60;101691.25;5052166;28;46199;-68
2023/04/05 11:01:08;;;;;;;;;35.00;30.25;;;;;14.72;28.71;101696.72;5066731;28;45059;-67
2023/04/05 11:03:40;;;;;;;;;38.00;31.25;;;;;14.77;28.72;101692.34;5051245;28;44936;-65
2023/04/05 11:06:27;;;;;;;;;38.00;29.75;;;;;14.87;28.40;101683.63;5054073;28;45216;-64
2023/04/05 11:08:59;;;;;;;;;38.75;32.00;;;;;14.91;28.24;101684.59;5052704;28;45521;-65
2023/04/05 11:11:25;;;;;;;;;34.00;29.00;;;;;14.91;27.73;101680.16;5051300;28;45509;-64
2023/04/05 11:13:56;;;;;;;;;41.25;29.75;;;;;14.84;28.26;101679.97;5048866;28;45007;-66
2023/04/05 11:16:23;;;;;;;;;40.00;32.50;;;;;14.82;28.01;101673.63;5051946;28;45178;-64
2023/04/05 11:18:51;;;;;;;;;35.75;30.00;;;;;14.84;27.79;101675.47;5042670;28;45906;-65